sensor_id;sensor_type;location;lat;lon;timestamp;temperature;humidity
52413;DHT22;38339;53.234;6.578;2022-10-16T00:01:22;13.10;99.90
52413;DHT22;38339;53.234;6.578;2022-10-16T00:03:49;13.10;99.90
52413;DHT22;38339;53.234;6.578;2022-10-16T00:06:16;13.10;99.90
52413;DHT22;38339;53.234;6.578;2022-10-16T00:08:43;13.10;99.90
52413;DHT22;38339;53.234;6.578;2022-10-16T00:11:22;13.10;99.90
52413;DHT22;38339;53.234;6.578;2022-10-16T00:13:49;13.10;99.90
52413;DHT22;38339;53.234;6.578;2022-10-16T00:16:16;13.10;99.90
52413;DHT22;38339;53.234;6.578;2022-10-16T00:18:43;13.10;99.90
52413;DHT22;38339;53.234;6.578;2022-10-16T00:21:20;13.10;99.90
52413;DHT22;38339;53.234;6.578;2022-10-16T00:23:49;13.10;99.90
52413;DHT22;38339;53.234;6.578;2022-10-16T00:26:17;13.10;99.90
52413;DHT22;38339;53.234;6.578;2022-10-16T00:28:45;13.00;99.90
52413;DHT22;38339;53.234;6.578;2022-10-16T00:31:12;13.00;99.90
52413;DHT22;38339;53.234;6.578;2022-10-16T00:33:39;13.00;99.90
52413;DHT22;38339;53.234;6.578;2022-10-16T00:36:06;13.10;99.90
52413;DHT22;38339;53.234;6.578;2022-10-16T00:38:32;13.00;99.90
52413;DHT22;38339;53.234;6.578;2022-10-16T00:40:58;13.00;99.90
52413;DHT22;38339;53.234;6.578;2022-10-16T00:43:41;13.00;99.90
52413;DHT22;38339;53.234;6.578;2022-10-16T00:51:28;13.00;99.90
52413;DHT22;38339;53.234;6.578;2022-10-16T00:53:55;13.00;99.90
52413;DHT22;38339;53.234;6.578;2022-10-16T00:56:22;13.00;99.90
52413;DHT22;38339;53.234;6.578;2022-10-16T00:58:48;13.00;99.90
52413;DHT22;38339;53.234;6.578;2022-10-16T01:01:13;13.00;99.90
52413;DHT22;38339;53.234;6.578;2022-10-16T01:03:39;13.00;99.90
52413;DHT22;38339;53.234;6.578;2022-10-16T01:12:04;13.10;99.90
52413;DHT22;38339;53.234;6.578;2022-10-16T01:17:18;13.10;99.90
52413;DHT22;38339;53.234;6.578;2022-10-16T01:20:07;13.00;99.90
52413;DHT22;38339;53.234;6.578;2022-10-16T01:22:59;13.00;99.90
52413;DHT22;38339;53.234;6.578;2022-10-16T01:28:07;13.00;99.90
52413;DHT22;38339;53.234;6.578;2022-10-16T01:30:35;13.00;99.90
52413;DHT22;38339;53.234;6.578;2022-10-16T01:33:26;13.10;99.90
52413;DHT22;38339;53.234;6.578;2022-10-16T01:35:59;13.10;99.90
52413;DHT22;38339;53.234;6.578;2022-10-16T01:38:38;13.10;99.90
52413;DHT22;38339;53.234;6.578;2022-10-16T01:41:09;13.10;99.90
52413;DHT22;38339;53.234;6.578;2022-10-16T01:43:49;13.10;99.90
52413;DHT22;38339;53.234;6.578;2022-10-16T01:46:17;13.10;99.90
52413;DHT22;38339;53.234;6.578;2022-10-16T01:48:43;13.10;99.90
52413;DHT22;38339;53.234;6.578;2022-10-16T01:51:12;13.10;99.90
52413;DHT22;38339;53.234;6.578;2022-10-16T01:53:40;13.10;99.90
52413;DHT22;38339;53.234;6.578;2022-10-16T01:56:09;13.10;99.90
52413;DHT22;38339;53.234;6.578;2022-10-16T01:58:47;13.10;99.90
52413;DHT22;38339;53.234;6.578;2022-10-16T02:01:16;13.10;99.90
52413;DHT22;38339;53.234;6.578;2022-10-16T02:03:44;13.10;99.90
52413;DHT22;38339;53.234;6.578;2022-10-16T02:06:11;13.20;99.90
52413;DHT22;38339;53.234;6.578;2022-10-16T02:08:37;13.20;99.90
52413;DHT22;38339;53.234;6.578;2022-10-16T02:11:04;13.20;99.90
52413;DHT22;38339;53.234;6.578;2022-10-16T02:13:44;13.20;99.90
52413;DHT22;38339;53.234;6.578;2022-10-16T02:16:11;13.20;99.90
52413;DHT22;38339;53.234;6.578;2022-10-16T02:18:38;13.30;99.90
52413;DHT22;38339;53.234;6.578;2022-10-16T02:21:14;13.30;99.90
52413;DHT22;38339;53.234;6.578;2022-10-16T02:26:35;13.30;99.90
52413;DHT22;38339;53.234;6.578;2022-10-16T02:29:08;13.30;99.90
52413;DHT22;38339;53.234;6.578;2022-10-16T02:31:38;13.30;99.90
52413;DHT22;38339;53.234;6.578;2022-10-16T02:34:06;13.30;99.90
52413;DHT22;38339;53.234;6.578;2022-10-16T02:36:34;13.30;99.90
52413;DHT22;38339;53.234;6.578;2022-10-16T02:39:02;13.30;99.90
52413;DHT22;38339;53.234;6.578;2022-10-16T02:41:30;13.30;99.90
52413;DHT22;38339;53.234;6.578;2022-10-16T02:43:55;13.30;99.90
52413;DHT22;38339;53.234;6.578;2022-10-16T02:46:21;13.30;99.90
52413;DHT22;38339;53.234;6.578;2022-10-16T02:48:47;13.30;99.90
52413;DHT22;38339;53.234;6.578;2022-10-16T02:51:13;13.30;99.90
52413;DHT22;38339;53.234;6.578;2022-10-16T02:53:38;13.30;99.90
52413;DHT22;38339;53.234;6.578;2022-10-16T02:56:04;13.30;99.90
52413;DHT22;38339;53.234;6.578;2022-10-16T02:58:30;13.30;99.90
52413;DHT22;38339;53.234;6.578;2022-10-16T03:00:55;13.30;99.90
52413;DHT22;38339;53.234;6.578;2022-10-16T03:03:21;13.30;99.90
52413;DHT22;38339;53.234;6.578;2022-10-16T03:05:47;13.30;99.90
52413;DHT22;38339;53.234;6.578;2022-10-16T03:08:13;13.30;99.90
52413;DHT22;38339;53.234;6.578;2022-10-16T03:10:39;13.30;99.90
52413;DHT22;38339;53.234;6.578;2022-10-16T03:13:05;13.30;99.90
52413;DHT22;38339;53.234;6.578;2022-10-16T03:15:30;13.30;99.90
52413;DHT22;38339;53.234;6.578;2022-10-16T03:18:00;13.30;99.90
52413;DHT22;38339;53.234;6.578;2022-10-16T03:20:26;13.30;99.90
52413;DHT22;38339;53.234;6.578;2022-10-16T03:22:52;13.30;99.90
52413;DHT22;38339;53.234;6.578;2022-10-16T03:25:18;13.30;99.90
52413;DHT22;38339;53.234;6.578;2022-10-16T03:27:44;13.30;99.90
52413;DHT22;38339;53.234;6.578;2022-10-16T03:30:10;13.30;99.90
52413;DHT22;38339;53.234;6.578;2022-10-16T03:32:35;13.30;99.90
52413;DHT22;38339;53.234;6.578;2022-10-16T03:35:01;13.30;99.90
52413;DHT22;38339;53.234;6.578;2022-10-16T03:37:27;13.40;99.90
52413;DHT22;38339;53.234;6.578;2022-10-16T03:39:53;13.40;99.90
52413;DHT22;38339;53.234;6.578;2022-10-16T03:42:18;13.30;99.90
52413;DHT22;38339;53.234;6.578;2022-10-16T03:44:44;13.30;99.90
52413;DHT22;38339;53.234;6.578;2022-10-16T03:47:10;13.30;99.90
52413;DHT22;38339;53.234;6.578;2022-10-16T03:49:36;13.30;99.90
52413;DHT22;38339;53.234;6.578;2022-10-16T03:52:01;13.30;99.90
52413;DHT22;38339;53.234;6.578;2022-10-16T03:54:27;13.30;99.90
52413;DHT22;38339;53.234;6.578;2022-10-16T03:56:53;13.30;99.90
52413;DHT22;38339;53.234;6.578;2022-10-16T03:59:18;13.30;99.90
52413;DHT22;38339;53.234;6.578;2022-10-16T04:01:44;13.30;99.90
52413;DHT22;38339;53.234;6.578;2022-10-16T04:04:10;13.30;99.90
52413;DHT22;38339;53.234;6.578;2022-10-16T04:06:35;13.20;99.90
52413;DHT22;38339;53.234;6.578;2022-10-16T04:09:01;13.20;99.90
52413;DHT22;38339;53.234;6.578;2022-10-16T04:11:27;13.20;99.90
52413;DHT22;38339;53.234;6.578;2022-10-16T04:13:53;13.20;99.90
52413;DHT22;38339;53.234;6.578;2022-10-16T04:16:18;13.20;99.90
52413;DHT22;38339;53.234;6.578;2022-10-16T04:18:44;13.20;99.90
52413;DHT22;38339;53.234;6.578;2022-10-16T04:21:10;13.20;99.90
52413;DHT22;38339;53.234;6.578;2022-10-16T04:23:35;13.10;99.90
52413;DHT22;38339;53.234;6.578;2022-10-16T04:26:01;13.10;99.90
52413;DHT22;38339;53.234;6.578;2022-10-16T04:28:27;13.10;99.90
52413;DHT22;38339;53.234;6.578;2022-10-16T04:30:53;13.10;99.90
52413;DHT22;38339;53.234;6.578;2022-10-16T04:33:18;13.10;99.90
52413;DHT22;38339;53.234;6.578;2022-10-16T04:35:45;13.10;99.90
52413;DHT22;38339;53.234;6.578;2022-10-16T04:38:10;13.10;99.90
52413;DHT22;38339;53.234;6.578;2022-10-16T04:40:36;13.00;99.90
52413;DHT22;38339;53.234;6.578;2022-10-16T04:43:05;13.00;99.90
52413;DHT22;38339;53.234;6.578;2022-10-16T04:45:31;13.00;99.90
52413;DHT22;38339;53.234;6.578;2022-10-16T04:47:58;13.10;99.90
52413;DHT22;38339;53.234;6.578;2022-10-16T04:50:23;13.10;99.90
52413;DHT22;38339;53.234;6.578;2022-10-16T04:52:49;13.10;99.90
52413;DHT22;38339;53.234;6.578;2022-10-16T04:55:15;13.10;99.90
52413;DHT22;38339;53.234;6.578;2022-10-16T04:57:40;13.10;99.90
52413;DHT22;38339;53.234;6.578;2022-10-16T05:00:07;13.10;99.90
52413;DHT22;38339;53.234;6.578;2022-10-16T05:02:33;13.10;99.90
52413;DHT22;38339;53.234;6.578;2022-10-16T05:04:59;13.20;99.90
52413;DHT22;38339;53.234;6.578;2022-10-16T05:07:25;13.10;99.90
52413;DHT22;38339;53.234;6.578;2022-10-16T05:09:50;13.20;99.90
52413;DHT22;38339;53.234;6.578;2022-10-16T05:12:17;13.20;99.90
52413;DHT22;38339;53.234;6.578;2022-10-16T05:14:42;13.20;99.90
52413;DHT22;38339;53.234;6.578;2022-10-16T05:17:08;13.10;99.90
52413;DHT22;38339;53.234;6.578;2022-10-16T05:19:34;13.20;99.90
52413;DHT22;38339;53.234;6.578;2022-10-16T05:22:00;13.20;99.90
52413;DHT22;38339;53.234;6.578;2022-10-16T05:24:26;13.20;99.90
52413;DHT22;38339;53.234;6.578;2022-10-16T05:26:52;13.10;99.90
52413;DHT22;38339;53.234;6.578;2022-10-16T05:29:17;13.10;99.90
52413;DHT22;38339;53.234;6.578;2022-10-16T05:31:43;13.20;99.90
52413;DHT22;38339;53.234;6.578;2022-10-16T05:34:09;13.20;99.90
52413;DHT22;38339;53.234;6.578;2022-10-16T05:36:34;13.10;99.90
52413;DHT22;38339;53.234;6.578;2022-10-16T05:39:00;13.20;99.90
52413;DHT22;38339;53.234;6.578;2022-10-16T05:41:26;13.20;99.90
52413;DHT22;38339;53.234;6.578;2022-10-16T05:43:52;13.20;99.90
52413;DHT22;38339;53.234;6.578;2022-10-16T05:46:18;13.10;99.90
52413;DHT22;38339;53.234;6.578;2022-10-16T05:48:44;13.10;99.90
52413;DHT22;38339;53.234;6.578;2022-10-16T05:51:11;13.10;99.90
52413;DHT22;38339;53.234;6.578;2022-10-16T05:53:38;13.10;99.90
52413;DHT22;38339;53.234;6.578;2022-10-16T05:56:05;13.10;99.90
52413;DHT22;38339;53.234;6.578;2022-10-16T05:58:33;13.10;99.90
52413;DHT22;38339;53.234;6.578;2022-10-16T06:01:03;13.10;99.90
52413;DHT22;38339;53.234;6.578;2022-10-16T06:03:28;13.10;99.90
52413;DHT22;38339;53.234;6.578;2022-10-16T06:05:54;13.10;99.90
52413;DHT22;38339;53.234;6.578;2022-10-16T06:08:21;13.10;99.90
52413;DHT22;38339;53.234;6.578;2022-10-16T06:10:47;13.10;99.90
52413;DHT22;38339;53.234;6.578;2022-10-16T06:13:14;13.00;99.90
52413;DHT22;38339;53.234;6.578;2022-10-16T06:15:41;13.00;99.90
52413;DHT22;38339;53.234;6.578;2022-10-16T06:18:10;13.00;99.90
52413;DHT22;38339;53.234;6.578;2022-10-16T06:20:37;13.00;99.90
52413;DHT22;38339;53.234;6.578;2022-10-16T06:23:03;13.00;99.90
52413;DHT22;38339;53.234;6.578;2022-10-16T06:25:30;13.00;99.90
52413;DHT22;38339;53.234;6.578;2022-10-16T06:27:56;13.00;99.90
52413;DHT22;38339;53.234;6.578;2022-10-16T06:30:22;13.10;99.90
52413;DHT22;38339;53.234;6.578;2022-10-16T06:32:48;13.10;99.90
52413;DHT22;38339;53.234;6.578;2022-10-16T06:35:13;13.10;99.90
52413;DHT22;38339;53.234;6.578;2022-10-16T06:37:39;13.10;99.90
52413;DHT22;38339;53.234;6.578;2022-10-16T06:40:05;13.10;99.90
52413;DHT22;38339;53.234;6.578;2022-10-16T06:42:31;13.10;99.90
52413;DHT22;38339;53.234;6.578;2022-10-16T06:44:56;13.20;99.90
52413;DHT22;38339;53.234;6.578;2022-10-16T06:47:22;13.20;99.90
52413;DHT22;38339;53.234;6.578;2022-10-16T06:49:48;13.20;99.90
52413;DHT22;38339;53.234;6.578;2022-10-16T06:52:14;13.20;99.90
52413;DHT22;38339;53.234;6.578;2022-10-16T06:54:40;13.20;99.90
52413;DHT22;38339;53.234;6.578;2022-10-16T06:57:05;13.20;99.90
52413;DHT22;38339;53.234;6.578;2022-10-16T06:59:31;13.20;99.90
52413;DHT22;38339;53.234;6.578;2022-10-16T07:01:57;13.20;99.90
52413;DHT22;38339;53.234;6.578;2022-10-16T07:04:22;13.30;99.90
52413;DHT22;38339;53.234;6.578;2022-10-16T07:06:48;13.30;99.90
52413;DHT22;38339;53.234;6.578;2022-10-16T07:09:13;13.30;99.90
52413;DHT22;38339;53.234;6.578;2022-10-16T07:11:40;13.30;99.90
52413;DHT22;38339;53.234;6.578;2022-10-16T07:14:18;13.40;99.90
52413;DHT22;38339;53.234;6.578;2022-10-16T07:16:44;13.50;99.90
52413;DHT22;38339;53.234;6.578;2022-10-16T07:19:09;13.40;99.90
52413;DHT22;38339;53.234;6.578;2022-10-16T07:21:37;13.40;99.90
52413;DHT22;38339;53.234;6.578;2022-10-16T07:24:21;13.50;99.90
52413;DHT22;38339;53.234;6.578;2022-10-16T07:26:48;13.50;99.90
52413;DHT22;38339;53.234;6.578;2022-10-16T07:29:16;13.50;99.90
52413;DHT22;38339;53.234;6.578;2022-10-16T07:31:42;13.60;99.90
52413;DHT22;38339;53.234;6.578;2022-10-16T07:34:10;13.50;99.90
52413;DHT22;38339;53.234;6.578;2022-10-16T07:36:36;13.50;99.90
52413;DHT22;38339;53.234;6.578;2022-10-16T07:39:02;13.50;99.90
52413;DHT22;38339;53.234;6.578;2022-10-16T07:41:30;13.60;99.90
52413;DHT22;38339;53.234;6.578;2022-10-16T07:43:58;13.60;99.90
52413;DHT22;38339;53.234;6.578;2022-10-16T07:46:26;13.60;99.90
52413;DHT22;38339;53.234;6.578;2022-10-16T07:48:52;13.70;99.90
52413;DHT22;38339;53.234;6.578;2022-10-16T07:51:23;13.70;99.90
52413;DHT22;38339;53.234;6.578;2022-10-16T07:53:50;13.70;99.90
52413;DHT22;38339;53.234;6.578;2022-10-16T07:56:17;13.70;99.90
52413;DHT22;38339;53.234;6.578;2022-10-16T07:58:43;13.70;99.90
52413;DHT22;38339;53.234;6.578;2022-10-16T08:01:11;13.60;99.90
52413;DHT22;38339;53.234;6.578;2022-10-16T08:03:38;13.70;99.90
52413;DHT22;38339;53.234;6.578;2022-10-16T08:06:04;13.60;99.90
52413;DHT22;38339;53.234;6.578;2022-10-16T08:08:30;13.60;99.90
52413;DHT22;38339;53.234;6.578;2022-10-16T08:10:56;13.60;99.90
52413;DHT22;38339;53.234;6.578;2022-10-16T08:13:22;13.60;99.90
52413;DHT22;38339;53.234;6.578;2022-10-16T08:15:48;13.60;99.90
52413;DHT22;38339;53.234;6.578;2022-10-16T08:18:15;13.50;99.90
52413;DHT22;38339;53.234;6.578;2022-10-16T08:20:41;13.60;99.90
52413;DHT22;38339;53.234;6.578;2022-10-16T08:23:08;13.60;99.90
52413;DHT22;38339;53.234;6.578;2022-10-16T08:25:36;13.70;99.90
52413;DHT22;38339;53.234;6.578;2022-10-16T08:28:06;13.70;99.90
52413;DHT22;38339;53.234;6.578;2022-10-16T08:30:32;13.80;99.90
52413;DHT22;38339;53.234;6.578;2022-10-16T08:32:59;13.90;99.90
52413;DHT22;38339;53.234;6.578;2022-10-16T08:35:25;14.00;99.90
52413;DHT22;38339;53.234;6.578;2022-10-16T08:37:50;14.10;99.90
52413;DHT22;38339;53.234;6.578;2022-10-16T08:40:28;14.20;99.90
52413;DHT22;38339;53.234;6.578;2022-10-16T08:46:05;14.30;99.90
52413;DHT22;38339;53.234;6.578;2022-10-16T08:48:47;14.40;99.90
52413;DHT22;38339;53.234;6.578;2022-10-16T08:51:28;14.40;99.90
52413;DHT22;38339;53.234;6.578;2022-10-16T08:54:09;14.50;99.90
52413;DHT22;38339;53.234;6.578;2022-10-16T08:56:36;14.60;99.90
52413;DHT22;38339;53.234;6.578;2022-10-16T08:59:06;14.70;99.90
52413;DHT22;38339;53.234;6.578;2022-10-16T09:01:44;14.70;99.90
52413;DHT22;38339;53.234;6.578;2022-10-16T09:07:11;14.80;99.90
52413;DHT22;38339;53.234;6.578;2022-10-16T09:12:43;14.80;99.90
52413;DHT22;38339;53.234;6.578;2022-10-16T09:21:15;15.00;99.90
52413;DHT22;38339;53.234;6.578;2022-10-16T09:23:43;15.10;99.90
52413;DHT22;38339;53.234;6.578;2022-10-16T09:26:12;15.10;99.90
52413;DHT22;38339;53.234;6.578;2022-10-16T09:28:38;15.10;99.90
52413;DHT22;38339;53.234;6.578;2022-10-16T09:31:04;15.20;99.90
52413;DHT22;38339;53.234;6.578;2022-10-16T09:33:35;15.20;99.90
52413;DHT22;38339;53.234;6.578;2022-10-16T09:36:03;15.30;99.90
52413;DHT22;38339;53.234;6.578;2022-10-16T09:38:32;15.40;99.90
52413;DHT22;38339;53.234;6.578;2022-10-16T09:41:00;15.40;99.90
52413;DHT22;38339;53.234;6.578;2022-10-16T09:43:27;15.50;99.90
52413;DHT22;38339;53.234;6.578;2022-10-16T09:46:00;15.50;99.90
52413;DHT22;38339;53.234;6.578;2022-10-16T09:48:53;15.60;99.90
52413;DHT22;38339;53.234;6.578;2022-10-16T09:51:23;15.60;99.90
52413;DHT22;38339;53.234;6.578;2022-10-16T09:54:01;15.60;99.90
52413;DHT22;38339;53.234;6.578;2022-10-16T09:56:33;15.70;99.90
52413;DHT22;38339;53.234;6.578;2022-10-16T09:59:19;15.60;99.90
52413;DHT22;38339;53.234;6.578;2022-10-16T10:01:50;15.70;99.90
52413;DHT22;38339;53.234;6.578;2022-10-16T10:04:20;15.70;99.90
52413;DHT22;38339;53.234;6.578;2022-10-16T10:06:54;15.70;99.90
52413;DHT22;38339;53.234;6.578;2022-10-16T10:09:32;15.60;99.90
52413;DHT22;38339;53.234;6.578;2022-10-16T10:12:01;15.60;99.90
52413;DHT22;38339;53.234;6.578;2022-10-16T10:14:44;15.60;99.90
52413;DHT22;38339;53.234;6.578;2022-10-16T10:17:23;15.70;99.90
52413;DHT22;38339;53.234;6.578;2022-10-16T10:19:54;15.70;99.90
52413;DHT22;38339;53.234;6.578;2022-10-16T10:22:32;15.70;99.90
52413;DHT22;38339;53.234;6.578;2022-10-16T10:35:50;15.90;99.90
52413;DHT22;38339;53.234;6.578;2022-10-16T10:41:47;16.00;99.90
52413;DHT22;38339;53.234;6.578;2022-10-16T10:53:44;16.20;99.90
52413;DHT22;38339;53.234;6.578;2022-10-16T11:05:02;16.30;99.90
52413;DHT22;38339;53.234;6.578;2022-10-16T11:07:39;16.30;99.90
52413;DHT22;38339;53.234;6.578;2022-10-16T11:10:16;16.30;99.90
52413;DHT22;38339;53.234;6.578;2022-10-16T11:12:49;16.30;99.90
52413;DHT22;38339;53.234;6.578;2022-10-16T11:15:34;16.30;99.90
52413;DHT22;38339;53.234;6.578;2022-10-16T11:18:15;16.20;99.90
52413;DHT22;38339;53.234;6.578;2022-10-16T11:20:56;16.20;99.90
52413;DHT22;38339;53.234;6.578;2022-10-16T11:23:35;16.30;99.90
52413;DHT22;38339;53.234;6.578;2022-10-16T11:26:09;16.40;99.90
52413;DHT22;38339;53.234;6.578;2022-10-16T11:28:48;16.50;99.90
52413;DHT22;38339;53.234;6.578;2022-10-16T11:31:34;16.60;99.90
52413;DHT22;38339;53.234;6.578;2022-10-16T11:34:48;16.60;99.90
52413;DHT22;38339;53.234;6.578;2022-10-16T11:36:58;16.70;99.90
52413;DHT22;38339;53.234;6.578;2022-10-16T11:39:29;16.80;99.90
52413;DHT22;38339;53.234;6.578;2022-10-16T11:42:09;16.80;99.90
52413;DHT22;38339;53.234;6.578;2022-10-16T11:45:07;16.90;99.90
52413;DHT22;38339;53.234;6.578;2022-10-16T11:50:57;16.90;99.90
52413;DHT22;38339;53.234;6.578;2022-10-16T11:56:01;17.00;99.90
52413;DHT22;38339;53.234;6.578;2022-10-16T12:04:01;16.90;99.90
52413;DHT22;38339;53.234;6.578;2022-10-16T12:06:44;16.80;99.90
52413;DHT22;38339;53.234;6.578;2022-10-16T12:09:22;16.70;99.90
52413;DHT22;38339;53.234;6.578;2022-10-16T12:11:50;16.70;99.90
52413;DHT22;38339;53.234;6.578;2022-10-16T12:16:56;16.80;99.90
52413;DHT22;38339;53.234;6.578;2022-10-16T12:19:23;16.70;99.90
52413;DHT22;38339;53.234;6.578;2022-10-16T12:21:51;16.70;99.90
52413;DHT22;38339;53.234;6.578;2022-10-16T12:24:42;16.70;99.90
52413;DHT22;38339;53.234;6.578;2022-10-16T12:27:28;16.70;99.90
52413;DHT22;38339;53.234;6.578;2022-10-16T12:29:54;16.70;99.90
52413;DHT22;38339;53.234;6.578;2022-10-16T12:32:28;16.70;99.90
52413;DHT22;38339;53.234;6.578;2022-10-16T12:34:54;16.70;99.90
52413;DHT22;38339;53.234;6.578;2022-10-16T12:37:36;16.70;99.90
52413;DHT22;38339;53.234;6.578;2022-10-16T12:42:53;16.60;99.90
52413;DHT22;38339;53.234;6.578;2022-10-16T12:45:29;16.60;99.90
52413;DHT22;38339;53.234;6.578;2022-10-16T12:47:57;16.70;99.90
52413;DHT22;38339;53.234;6.578;2022-10-16T12:50:27;16.60;99.90
52413;DHT22;38339;53.234;6.578;2022-10-16T12:52:54;16.60;99.90
52413;DHT22;38339;53.234;6.578;2022-10-16T12:55:21;16.50;99.90
52413;DHT22;38339;53.234;6.578;2022-10-16T13:01:11;16.40;99.90
52413;DHT22;38339;53.234;6.578;2022-10-16T13:04:13;16.30;99.90
52413;DHT22;38339;53.234;6.578;2022-10-16T13:07:21;16.30;99.90
52413;DHT22;38339;53.234;6.578;2022-10-16T13:10:09;16.20;99.90
52413;DHT22;38339;53.234;6.578;2022-10-16T13:15:20;16.20;99.90
52413;DHT22;38339;53.234;6.578;2022-10-16T13:18:00;16.30;99.90
52413;DHT22;38339;53.234;6.578;2022-10-16T13:20:39;16.30;99.90
52413;DHT22;38339;53.234;6.578;2022-10-16T13:23:17;16.30;99.90
52413;DHT22;38339;53.234;6.578;2022-10-16T13:28:13;16.30;99.90
52413;DHT22;38339;53.234;6.578;2022-10-16T13:30:53;16.30;99.90
52413;DHT22;38339;53.234;6.578;2022-10-16T13:33:33;16.30;99.90
52413;DHT22;38339;53.234;6.578;2022-10-16T13:36:00;16.30;99.90
52413;DHT22;38339;53.234;6.578;2022-10-16T13:38:31;16.20;99.90
52413;DHT22;38339;53.234;6.578;2022-10-16T13:43:37;16.20;99.90
52413;DHT22;38339;53.234;6.578;2022-10-16T13:46:10;16.20;99.90
52413;DHT22;38339;53.234;6.578;2022-10-16T13:48:37;16.20;99.90
52413;DHT22;38339;53.234;6.578;2022-10-16T13:51:06;16.30;99.90
52413;DHT22;38339;53.234;6.578;2022-10-16T13:53:36;16.30;99.90
52413;DHT22;38339;53.234;6.578;2022-10-16T13:56:04;16.40;99.90
52413;DHT22;38339;53.234;6.578;2022-10-16T13:58:30;16.50;99.90
52413;DHT22;38339;53.234;6.578;2022-10-16T14:01:02;16.50;99.90
52413;DHT22;38339;53.234;6.578;2022-10-16T14:03:29;16.60;99.90
52413;DHT22;38339;53.234;6.578;2022-10-16T14:05:59;16.60;99.90
52413;DHT22;38339;53.234;6.578;2022-10-16T14:08:27;16.60;99.90
52413;DHT22;38339;53.234;6.578;2022-10-16T14:10:59;16.70;99.90
52413;DHT22;38339;53.234;6.578;2022-10-16T14:15:55;16.70;99.90
52413;DHT22;38339;53.234;6.578;2022-10-16T14:18:25;16.80;99.90
52413;DHT22;38339;53.234;6.578;2022-10-16T14:20:52;16.80;99.90
52413;DHT22;38339;53.234;6.578;2022-10-16T14:23:34;16.80;99.90
52413;DHT22;38339;53.234;6.578;2022-10-16T14:26:27;16.90;99.90
52413;DHT22;38339;53.234;6.578;2022-10-16T14:29:12;16.80;99.90
52413;DHT22;38339;53.234;6.578;2022-10-16T14:31:39;16.90;99.90
52413;DHT22;38339;53.234;6.578;2022-10-16T14:36:56;16.80;99.90
52413;DHT22;38339;53.234;6.578;2022-10-16T14:39:23;16.80;99.90
52413;DHT22;38339;53.234;6.578;2022-10-16T14:41:51;16.70;99.90
52413;DHT22;38339;53.234;6.578;2022-10-16T14:44:18;16.70;99.90
52413;DHT22;38339;53.234;6.578;2022-10-16T14:46:45;16.80;99.90
52413;DHT22;38339;53.234;6.578;2022-10-16T14:51:41;16.70;99.90
52413;DHT22;38339;53.234;6.578;2022-10-16T14:54:14;16.70;99.90
52413;DHT22;38339;53.234;6.578;2022-10-16T14:56:57;16.60;99.90
52413;DHT22;38339;53.234;6.578;2022-10-16T14:59:40;16.50;99.90
52413;DHT22;38339;53.234;6.578;2022-10-16T15:04:58;16.40;99.90
52413;DHT22;38339;53.234;6.578;2022-10-16T15:07:27;16.40;99.90
52413;DHT22;38339;53.234;6.578;2022-10-16T15:09:59;16.30;99.90
52413;DHT22;38339;53.234;6.578;2022-10-16T15:12:25;16.30;99.90
52413;DHT22;38339;53.234;6.578;2022-10-16T15:14:51;16.20;99.90
52413;DHT22;38339;53.234;6.578;2022-10-16T15:17:16;16.20;99.90
52413;DHT22;38339;53.234;6.578;2022-10-16T15:19:42;16.20;99.90
52413;DHT22;38339;53.234;6.578;2022-10-16T15:22:11;16.20;99.90
52413;DHT22;38339;53.234;6.578;2022-10-16T15:24:36;16.20;99.90
52413;DHT22;38339;53.234;6.578;2022-10-16T15:27:02;16.20;99.90
52413;DHT22;38339;53.234;6.578;2022-10-16T15:29:28;16.20;99.90
52413;DHT22;38339;53.234;6.578;2022-10-16T15:31:54;16.10;99.90
52413;DHT22;38339;53.234;6.578;2022-10-16T15:34:19;16.10;99.90
52413;DHT22;38339;53.234;6.578;2022-10-16T15:36:45;16.10;99.90
52413;DHT22;38339;53.234;6.578;2022-10-16T15:39:19;16.00;99.90
52413;DHT22;38339;53.234;6.578;2022-10-16T15:41:46;16.00;99.90
52413;DHT22;38339;53.234;6.578;2022-10-16T15:44:20;16.00;99.90
52413;DHT22;38339;53.234;6.578;2022-10-16T15:46:48;15.90;99.90
52413;DHT22;38339;53.234;6.578;2022-10-16T15:49:14;15.90;99.90
52413;DHT22;38339;53.234;6.578;2022-10-16T15:51:41;15.80;99.90
52413;DHT22;38339;53.234;6.578;2022-10-16T15:54:08;15.80;99.90
52413;DHT22;38339;53.234;6.578;2022-10-16T15:56:34;15.80;99.90
52413;DHT22;38339;53.234;6.578;2022-10-16T15:59:02;15.70;99.90
52413;DHT22;38339;53.234;6.578;2022-10-16T16:01:35;15.60;99.90
52413;DHT22;38339;53.234;6.578;2022-10-16T16:04:01;15.60;99.90
52413;DHT22;38339;53.234;6.578;2022-10-16T16:06:26;15.50;99.90
52413;DHT22;38339;53.234;6.578;2022-10-16T16:08:52;15.40;99.90
52413;DHT22;38339;53.234;6.578;2022-10-16T16:11:19;15.40;99.90
52413;DHT22;38339;53.234;6.578;2022-10-16T16:13:45;15.30;99.90
52413;DHT22;38339;53.234;6.578;2022-10-16T16:16:15;15.30;99.90
52413;DHT22;38339;53.234;6.578;2022-10-16T16:18:41;15.30;99.90
52413;DHT22;38339;53.234;6.578;2022-10-16T16:21:07;15.20;99.90
52413;DHT22;38339;53.234;6.578;2022-10-16T16:23:34;15.20;99.90
52413;DHT22;38339;53.234;6.578;2022-10-16T16:28:36;15.10;99.90
52413;DHT22;38339;53.234;6.578;2022-10-16T16:31:03;15.00;99.90
52413;DHT22;38339;53.234;6.578;2022-10-16T16:33:29;15.00;99.90
52413;DHT22;38339;53.234;6.578;2022-10-16T16:36:00;14.90;99.90
52413;DHT22;38339;53.234;6.578;2022-10-16T16:38:27;14.90;99.90
52413;DHT22;38339;53.234;6.578;2022-10-16T16:40:53;14.80;99.90
52413;DHT22;38339;53.234;6.578;2022-10-16T16:43:23;14.80;99.90
52413;DHT22;38339;53.234;6.578;2022-10-16T16:45:48;14.70;99.90
52413;DHT22;38339;53.234;6.578;2022-10-16T16:48:14;14.70;99.90
52413;DHT22;38339;53.234;6.578;2022-10-16T16:50:40;14.70;99.90
52413;DHT22;38339;53.234;6.578;2022-10-16T16:53:06;14.60;99.90
52413;DHT22;38339;53.234;6.578;2022-10-16T16:55:33;14.60;99.90
52413;DHT22;38339;53.234;6.578;2022-10-16T16:57:58;14.60;99.90
52413;DHT22;38339;53.234;6.578;2022-10-16T17:00:24;14.60;99.90
52413;DHT22;38339;53.234;6.578;2022-10-16T17:02:50;14.50;99.90
52413;DHT22;38339;53.234;6.578;2022-10-16T17:05:17;14.50;99.90
52413;DHT22;38339;53.234;6.578;2022-10-16T17:07:43;14.50;99.90
52413;DHT22;38339;53.234;6.578;2022-10-16T17:10:13;14.50;99.90
52413;DHT22;38339;53.234;6.578;2022-10-16T17:12:39;14.40;99.90
52413;DHT22;38339;53.234;6.578;2022-10-16T17:15:05;14.40;99.90
52413;DHT22;38339;53.234;6.578;2022-10-16T17:17:32;14.40;99.90
52413;DHT22;38339;53.234;6.578;2022-10-16T17:19:58;14.40;99.90
52413;DHT22;38339;53.234;6.578;2022-10-16T17:22:23;14.30;99.90
52413;DHT22;38339;53.234;6.578;2022-10-16T17:24:49;14.30;99.90
52413;DHT22;38339;53.234;6.578;2022-10-16T17:27:19;14.30;99.90
52413;DHT22;38339;53.234;6.578;2022-10-16T17:29:49;14.30;99.90
52413;DHT22;38339;53.234;6.578;2022-10-16T17:32:14;14.30;99.90